createdAt,value
2019-03-23T00:01:00.482Z,96527.88
2019-03-23T00:03:28.391Z,96525.95
2019-03-23T00:05:56.256Z,96532.69
2019-03-23T00:08:24.139Z,96526.20
2019-03-23T00:10:52.117Z,96529.64
2019-03-23T00:13:20.079Z,96525.27
2019-03-23T00:15:47.999Z,96521.02
2019-03-23T00:18:15.799Z,96522.38
2019-03-23T00:20:43.691Z,96516.33
2019-03-23T00:23:11.585Z,96520.98
2019-03-23T00:25:39.459Z,96519.20
2019-03-23T00:28:07.281Z,96518.39
2019-03-23T00:30:35.179Z,96512.70
2019-03-23T00:33:03.068Z,96508.38
2019-03-23T00:35:30.945Z,96506.14
2019-03-23T00:37:58.858Z,96507.46
2019-03-23T00:40:26.813Z,96503.54
2019-03-23T00:42:54.686Z,96505.06
2019-03-23T00:45:22.544Z,96500.73
2019-03-23T00:47:50.428Z,96504.00
2019-03-23T00:50:18.301Z,96509.98
2019-03-23T00:52:46.242Z,96511.83
2019-03-23T00:55:14.105Z,96512.73
2019-03-23T00:57:42.029Z,96508.50
2019-03-23T01:00:10.526Z,96508.54
2019-03-23T01:02:38.520Z,96511.64
2019-03-23T01:05:07.491Z,96512.67
2019-03-23T01:07:35.364Z,96517.33
2019-03-23T01:10:04.184Z,96499.65
2019-03-23T01:12:32.030Z,96503.55
2019-03-23T01:15:00.006Z,96500.68
2019-03-23T01:17:27.880Z,96504.75
2019-03-23T01:19:55.719Z,96506.05
2019-03-23T01:22:23.607Z,96501.82
2019-03-23T01:24:51.485Z,96498.73
2019-03-23T01:27:19.391Z,96495.84
2019-03-23T01:29:47.254Z,96497.69
2019-03-23T01:32:15.139Z,96505.50
2019-03-23T01:34:42.980Z,96499.61
2019-03-23T01:37:10.860Z,96501.30
2019-03-23T01:39:38.727Z,96495.78
2019-03-23T01:42:06.599Z,96492.58
2019-03-23T01:44:34.511Z,96496.05
2019-03-23T01:47:02.380Z,96489.42
2019-03-23T01:49:30.239Z,96491.20
2019-03-23T01:51:58.083Z,96490.93
2019-03-23T01:54:25.941Z,96492.81
2019-03-23T01:56:53.862Z,96488.70
2019-03-23T01:59:21.733Z,96495.01
2019-03-23T02:01:49.594Z,96495.66
2019-03-23T02:04:17.521Z,96488.34
2019-03-23T02:06:45.807Z,96489.50
2019-03-23T02:09:13.774Z,96496.89
2019-03-23T02:11:41.702Z,96499.55
2019-03-23T02:14:09.599Z,96498.32
2019-03-23T02:16:37.475Z,96496.13
2019-03-23T02:19:05.842Z,96494.32
2019-03-23T02:21:33.759Z,96497.19
2019-03-23T02:24:01.622Z,96496.16
2019-03-23T02:26:29.531Z,96498.30
2019-03-23T02:28:57.431Z,96496.78
2019-03-23T02:31:25.360Z,96496.80
2019-03-23T02:33:53.248Z,96491.18
2019-03-23T02:36:21.150Z,96491.30
2019-03-23T02:38:49.005Z,96487.86
2019-03-23T02:41:16.908Z,96487.28
2019-03-23T02:43:44.785Z,96490.35
2019-03-23T02:46:12.658Z,96489.93
2019-03-23T02:48:40.560Z,96488.69
2019-03-23T02:51:08.448Z,96489.53
2019-03-23T02:53:36.327Z,96481.46
2019-03-23T02:56:04.188Z,96478.98
2019-03-23T02:58:32.082Z,96487.14
2019-03-23T03:01:00.340Z,96484.97
2019-03-23T03:03:28.236Z,96483.78
2019-03-23T03:05:56.062Z,96484.83
2019-03-23T03:08:24.013Z,96490.13
2019-03-23T03:10:51.869Z,96483.52
2019-03-23T03:13:19.699Z,96484.16
2019-03-23T03:15:47.633Z,96482.55
2019-03-23T03:18:15.568Z,96494.33
2019-03-23T03:20:43.512Z,96495.05
2019-03-23T03:23:11.502Z,96488.58
2019-03-23T03:25:39.349Z,96483.84
2019-03-23T03:28:07.143Z,96488.27
2019-03-23T03:30:35.224Z,96491.31
2019-03-23T03:33:03.129Z,96490.80
2019-03-23T03:35:30.944Z,96495.72
2019-03-23T03:37:58.872Z,96493.14
2019-03-23T03:40:26.780Z,96490.16
2019-03-23T03:42:54.629Z,96489.78
2019-03-23T03:45:24.494Z,96493.83
2019-03-23T03:47:54.682Z,96485.98
2019-03-23T03:50:22.604Z,96490.13
2019-03-23T03:52:50.500Z,96485.00
2019-03-23T03:55:18.384Z,96492.03
2019-03-23T03:57:46.264Z,96490.70
2019-03-23T04:00:14.242Z,96490.81
2019-03-23T04:02:42.101Z,96491.17
2019-03-23T04:05:10.066Z,96481.13
2019-03-23T04:07:37.930Z,96486.38
2019-03-23T04:10:06.030Z,96492.33
2019-03-23T04:12:33.940Z,96489.20
2019-03-23T04:15:01.811Z,96487.14
2019-03-23T04:17:29.659Z,96488.85
2019-03-23T04:19:57.588Z,96486.77
2019-03-23T04:22:25.390Z,96494.92
2019-03-23T04:24:53.261Z,96499.54
2019-03-23T04:27:21.141Z,96501.06
2019-03-23T04:29:49.007Z,96505.85
2019-03-23T04:32:16.942Z,96504.91
2019-03-23T04:34:44.900Z,96509.14
2019-03-23T04:37:13.042Z,96511.96
2019-03-23T04:39:40.944Z,96508.74
2019-03-23T04:42:08.799Z,96503.70
2019-03-23T04:44:36.660Z,96506.70
2019-03-23T04:47:04.597Z,96505.97
2019-03-23T04:49:32.482Z,96505.80
2019-03-23T04:52:00.359Z,96510.86
2019-03-23T04:54:28.201Z,96511.55
2019-03-23T04:56:56.087Z,96514.89
2019-03-23T04:59:24.780Z,96514.71
2019-03-23T05:01:53.711Z,96517.27
2019-03-23T05:04:22.069Z,96517.66
2019-03-23T05:06:49.945Z,96520.36
2019-03-23T05:09:17.799Z,96515.93
2019-03-23T05:11:45.709Z,96523.70
2019-03-23T05:14:13.560Z,96523.72
2019-03-23T05:16:41.439Z,96531.95
2019-03-23T05:19:09.279Z,96532.80
2019-03-23T05:21:37.194Z,96528.73
2019-03-23T05:24:05.082Z,96535.89
2019-03-23T05:26:32.934Z,96541.86
2019-03-23T05:29:00.840Z,96544.39
2019-03-23T05:31:28.699Z,96544.70
2019-03-23T05:33:56.620Z,96542.56
2019-03-23T05:36:24.535Z,96551.66
2019-03-23T05:38:52.425Z,96546.20
2019-03-23T05:41:20.322Z,96553.10
2019-03-23T05:43:48.202Z,96553.03
2019-03-23T05:46:16.681Z,96549.25
2019-03-23T05:48:44.544Z,96564.69
2019-03-23T05:51:12.439Z,96560.23
2019-03-23T05:53:40.261Z,96559.80
2019-03-23T05:56:08.122Z,96561.93
2019-03-23T05:58:35.959Z,96557.06
2019-03-23T06:01:03.811Z,96557.59
2019-03-23T06:03:31.741Z,96557.78
2019-03-23T06:05:59.622Z,96552.78
2019-03-23T06:08:27.461Z,96561.81
2019-03-23T06:10:55.360Z,96556.80
2019-03-23T06:13:23.279Z,96558.77
2019-03-23T06:15:51.099Z,96557.27
2019-03-23T06:18:18.974Z,96562.31
2019-03-23T06:20:46.951Z,96557.64
2019-03-23T06:23:15.880Z,96568.41
2019-03-23T06:25:43.785Z,96558.75
2019-03-23T06:28:11.691Z,96561.02
2019-03-23T06:30:39.583Z,96561.23
2019-03-23T06:33:07.459Z,96563.39
2019-03-23T06:35:35.380Z,96558.80
2019-03-23T06:38:04.055Z,96559.61
2019-03-23T06:40:31.873Z,96558.28
2019-03-23T06:43:00.155Z,96560.50
2019-03-23T06:45:28.657Z,96557.27
2019-03-23T06:47:56.787Z,96560.38
2019-03-23T06:50:24.831Z,96556.11
2019-03-23T06:52:53.069Z,96564.97
2019-03-23T06:55:20.931Z,96560.41
2019-03-23T06:57:48.774Z,96565.76
2019-03-23T07:00:16.760Z,96556.77
2019-03-23T07:02:44.662Z,96560.96
2019-03-23T07:05:13.055Z,96559.17
2019-03-23T07:07:41.137Z,96561.34
2019-03-23T07:10:10.856Z,96561.84
2019-03-23T07:12:38.838Z,96562.83
2019-03-23T07:15:07.873Z,96563.09
2019-03-23T07:17:35.806Z,96560.45
2019-03-23T07:20:04.986Z,96557.67
2019-03-23T07:22:32.889Z,96559.36
2019-03-23T07:25:00.966Z,96560.46
2019-03-23T07:27:29.240Z,96561.23
2019-03-23T07:29:57.119Z,96556.63
2019-03-23T07:32:25.028Z,96556.45
2019-03-23T07:34:52.970Z,96556.69
2019-03-23T07:37:20.922Z,96554.49
2019-03-23T07:39:48.810Z,96553.35
2019-03-23T07:42:16.994Z,96548.29
2019-03-23T07:44:46.717Z,96543.89
2019-03-23T07:47:14.716Z,96537.79
2019-03-23T07:49:43.642Z,96536.28
2019-03-23T07:52:11.559Z,96530.44
2019-03-23T07:54:39.461Z,96523.06
2019-03-23T07:57:07.399Z,96521.64
2019-03-23T07:59:35.354Z,96516.53
2019-03-23T08:02:03.280Z,96517.97
2019-03-23T08:04:31.196Z,96509.59
2019-03-23T08:06:59.122Z,96503.84
2019-03-23T08:09:37.082Z,96501.02
2019-03-23T08:11:56.780Z,96504.06
2019-03-23T08:14:24.690Z,96505.91
2019-03-23T08:16:52.546Z,96495.58
2019-03-23T08:19:20.456Z,96493.63
2019-03-23T08:21:48.342Z,96490.42
2019-03-23T08:24:16.325Z,96487.58
2019-03-23T08:26:44.204Z,96485.89
2019-03-23T08:29:12.028Z,96478.11
2019-03-23T08:31:39.945Z,96475.82
2019-03-23T08:34:07.836Z,96479.16
2019-03-23T08:36:35.841Z,96476.74
2019-03-23T08:39:05.125Z,96473.48
2019-03-23T08:41:33.022Z,96465.59
2019-03-23T08:44:00.887Z,96469.48
2019-03-23T08:46:28.837Z,96461.08
2019-03-23T08:48:56.743Z,96448.01
2019-03-23T08:51:24.590Z,96445.61
2019-03-23T08:53:52.541Z,96439.38
2019-03-23T08:56:20.436Z,96441.23
2019-03-23T08:58:46.646Z,96431.80
2019-03-23T09:01:14.541Z,96431.04
2019-03-23T09:03:52.070Z,96425.28
2019-03-23T09:06:12.196Z,96425.34
2019-03-23T09:08:40.153Z,96418.52
2019-03-23T09:11:08.041Z,96412.48
2019-03-23T09:13:40.665Z,96412.99
2019-03-23T09:16:05.823Z,96410.87
2019-03-23T09:18:33.781Z,96411.78
2019-03-23T09:21:01.847Z,96415.36
2019-03-23T09:23:29.833Z,96408.92
2019-03-23T09:25:58.282Z,96408.52
2019-03-23T09:28:26.227Z,96398.47
2019-03-23T09:30:54.328Z,96396.19
2019-03-23T09:33:22.271Z,96387.58
2019-03-23T09:35:50.357Z,96384.68
2019-03-23T09:38:18.278Z,96378.06
2019-03-23T09:40:46.231Z,96377.84
2019-03-23T09:43:14.206Z,96371.06
2019-03-23T09:45:42.217Z,96370.70
2019-03-23T09:48:10.239Z,96367.34
2019-03-23T09:50:38.277Z,96359.63
2019-03-23T09:53:06.267Z,96362.34
2019-03-23T09:55:34.234Z,96358.08
2019-03-23T09:58:02.214Z,96356.19
2019-03-23T10:00:32.341Z,96356.89
2019-03-23T10:03:00.311Z,96346.06
2019-03-23T10:05:28.269Z,96339.60
2019-03-23T10:07:56.196Z,96332.76
2019-03-23T10:10:24.176Z,96336.29
2019-03-23T10:12:52.122Z,96332.06
2019-03-23T10:15:20.381Z,96331.42
2019-03-23T10:17:48.368Z,96321.95
2019-03-23T10:20:16.371Z,96326.75
2019-03-23T10:22:44.513Z,96315.91
2019-03-23T10:25:12.475Z,96311.20
2019-03-23T10:27:40.626Z,96308.17
2019-03-23T10:30:08.736Z,96309.62
2019-03-23T10:32:36.621Z,96300.15
2019-03-23T10:35:06.442Z,96300.93
2019-03-23T10:37:34.331Z,96296.80
2019-03-23T10:40:02.203Z,96293.67
2019-03-23T10:42:30.375Z,96292.28
2019-03-23T10:44:58.263Z,96285.45
2019-03-23T10:47:27.295Z,96286.39
2019-03-23T10:49:55.152Z,96277.55
2019-03-23T10:52:23.010Z,96274.87
2019-03-23T10:54:56.417Z,96263.48
2019-03-23T10:57:24.311Z,96263.94
2019-03-23T10:59:52.272Z,96252.87
2019-03-23T11:02:20.198Z,96256.73
2019-03-23T11:04:48.101Z,96247.89
2019-03-23T11:07:16.091Z,96243.98
2019-03-23T11:09:44.027Z,96243.23
2019-03-23T11:12:11.886Z,96233.28
2019-03-23T11:14:39.842Z,96230.42
2019-03-23T11:17:07.719Z,96231.61
2019-03-23T11:19:35.569Z,96218.05
2019-03-23T11:22:03.499Z,96213.03
2019-03-23T11:24:31.359Z,96208.38
2019-03-23T11:26:59.259Z,96199.23
2019-03-23T11:29:27.150Z,96200.34
2019-03-23T11:31:54.999Z,96197.48
2019-03-23T11:34:23.061Z,96188.14
2019-03-23T11:36:50.979Z,96187.28
2019-03-23T11:39:18.847Z,96183.03
2019-03-23T11:41:46.779Z,96179.43
2019-03-23T11:44:14.702Z,96178.09
2019-03-23T11:46:42.635Z,96175.06
2019-03-23T11:49:10.618Z,96172.59
2019-03-23T11:51:38.467Z,96167.20
2019-03-23T11:54:06.399Z,96164.11
2019-03-23T11:56:34.337Z,96165.19
2019-03-23T11:59:02.235Z,96157.77
2019-03-23T12:01:31.079Z,96156.80
2019-03-23T12:03:58.982Z,96156.16
2019-03-23T12:06:26.838Z,96149.20
2019-03-23T12:08:55.506Z,96146.50
2019-03-23T12:11:23.402Z,96146.23
2019-03-23T12:13:51.331Z,96144.39
2019-03-23T12:16:19.261Z,96136.53
2019-03-23T12:18:47.143Z,96135.89
2019-03-23T12:21:15.061Z,96129.19
2019-03-23T12:23:42.925Z,96121.30
2019-03-23T12:26:10.806Z,96122.94
2019-03-23T12:28:38.653Z,96113.66
2019-03-23T12:31:06.557Z,96107.97
2019-03-23T12:33:34.522Z,96107.55
2019-03-23T12:36:02.407Z,96110.95
2019-03-23T12:38:30.302Z,96100.33
2019-03-23T12:40:58.260Z,96094.16
2019-03-23T12:43:26.257Z,96085.14
2019-03-23T12:45:54.161Z,96084.38
2019-03-23T12:48:22.100Z,96086.79
2019-03-23T12:50:49.944Z,96078.73
2019-03-23T12:53:17.827Z,96074.75
2019-03-23T12:55:45.700Z,96078.64
2019-03-23T12:58:13.560Z,96079.23
2019-03-23T13:00:41.441Z,96081.11
2019-03-23T13:03:09.367Z,96077.56
2019-03-23T13:05:37.286Z,96072.78
2019-03-23T13:08:05.319Z,96067.52
2019-03-23T13:10:33.337Z,96064.95
2019-03-23T13:13:01.265Z,96064.27
2019-03-23T13:15:29.187Z,96064.34
2019-03-23T13:17:57.106Z,96061.59
2019-03-23T13:20:25.033Z,96060.87
2019-03-23T13:22:53.063Z,96065.04
2019-03-23T13:25:20.996Z,96058.34
2019-03-23T13:27:48.882Z,96053.70
2019-03-23T13:30:16.887Z,96047.36
2019-03-23T13:32:44.742Z,96048.77
2019-03-23T13:35:12.603Z,96045.72
2019-03-23T13:37:40.479Z,96041.34
2019-03-23T13:40:08.922Z,96035.98
2019-03-23T13:42:36.794Z,96034.36
2019-03-23T13:45:06.126Z,96028.84
2019-03-23T13:47:34.064Z,96024.84
2019-03-23T13:50:01.894Z,96024.05
2019-03-23T13:52:29.802Z,96021.17
2019-03-23T13:54:57.801Z,96023.00
2019-03-23T13:57:25.690Z,96019.52
2019-03-23T13:59:53.566Z,96010.69
2019-03-23T14:02:21.526Z,96008.13
2019-03-23T14:04:50.357Z,96008.89
2019-03-23T14:07:18.401Z,96007.56
2019-03-23T14:09:46.947Z,96005.73
2019-03-23T14:12:14.853Z,96002.81
2019-03-23T14:14:42.733Z,96009.63
2019-03-23T14:17:10.679Z,96003.67
2019-03-23T14:19:38.560Z,96005.17
2019-03-23T14:22:06.441Z,95996.55
2019-03-23T14:24:34.361Z,96001.08
2019-03-23T14:27:02.220Z,95998.41
2019-03-23T14:29:30.136Z,95992.62
2019-03-23T14:31:58.096Z,95995.67
2019-03-23T14:34:25.982Z,95993.65
2019-03-23T14:36:53.978Z,95995.61
2019-03-23T14:39:21.902Z,95998.22
2019-03-23T14:41:49.758Z,95996.11
2019-03-23T14:44:17.608Z,95995.97
2019-03-23T14:46:45.525Z,96003.66
2019-03-23T14:49:13.419Z,95989.48
2019-03-23T14:51:41.231Z,95992.44
2019-03-23T14:54:09.179Z,95987.73
2019-03-23T14:56:37.104Z,95994.05
2019-03-23T14:59:05.004Z,95993.22
2019-03-23T15:01:32.917Z,95991.91
2019-03-23T15:04:00.781Z,95989.73
2019-03-23T15:06:28.641Z,95984.21
2019-03-23T15:08:56.564Z,95984.89
2019-03-23T15:11:24.460Z,95990.16
2019-03-23T15:13:52.339Z,95985.56
2019-03-23T15:16:20.605Z,95979.52
2019-03-23T15:18:48.522Z,95982.42
2019-03-23T15:21:16.419Z,95979.14
2019-03-23T15:23:44.466Z,95977.73
2019-03-23T15:26:12.562Z,95976.58
2019-03-23T15:28:43.046Z,95977.72
2019-03-23T15:31:10.935Z,95974.44
2019-03-23T15:33:38.898Z,95980.23
2019-03-23T15:36:06.782Z,95972.75
2019-03-23T15:38:34.702Z,95980.88
2019-03-23T15:41:04.335Z,95977.73
2019-03-23T15:43:32.248Z,95984.87
2019-03-23T15:46:00.321Z,95980.11
2019-03-23T15:48:28.783Z,95976.64
2019-03-23T15:50:56.874Z,95978.06
2019-03-23T15:53:24.891Z,95984.21
2019-03-23T15:55:53.288Z,95982.91
2019-03-23T15:58:21.129Z,95982.38
2019-03-23T16:00:49.993Z,95983.19
2019-03-23T16:03:17.888Z,95982.55
2019-03-23T16:05:45.845Z,95990.40
2019-03-23T16:08:13.973Z,95988.90
2019-03-23T16:10:41.904Z,95986.17
2019-03-23T16:13:09.917Z,95990.26
2019-03-23T16:15:37.899Z,96001.11
2019-03-23T16:18:05.862Z,95999.95
2019-03-23T16:20:34.069Z,96000.39
2019-03-23T16:23:02.111Z,95997.41
2019-03-23T16:25:30.049Z,95999.52
2019-03-23T16:27:58.072Z,96006.39
2019-03-23T16:30:30.909Z,96011.91
2019-03-23T16:32:58.911Z,96015.03
2019-03-23T16:35:26.865Z,96019.32
2019-03-23T16:37:54.984Z,96027.32
2019-03-23T16:40:23.133Z,96027.45
2019-03-23T16:42:51.264Z,96032.20
2019-03-23T16:45:19.594Z,96025.69
2019-03-23T16:47:49.963Z,96031.48
2019-03-23T16:50:18.093Z,96029.50
2019-03-23T16:52:46.262Z,96033.12
2019-03-23T16:55:14.491Z,96030.70
2019-03-23T16:57:42.789Z,96032.50
2019-03-23T17:00:12.857Z,96033.90
2019-03-23T17:02:41.108Z,96032.15
2019-03-23T17:05:09.482Z,96036.72
2019-03-23T17:07:37.720Z,96046.27
2019-03-23T17:10:06.965Z,96049.52
2019-03-23T17:12:35.349Z,96053.28
2019-03-23T17:15:04.081Z,96045.41
2019-03-23T17:17:32.400Z,96048.27
2019-03-23T17:20:00.692Z,96051.67
2019-03-23T17:22:28.960Z,96053.50
2019-03-23T17:24:57.234Z,96054.48
2019-03-23T17:27:25.359Z,96059.06
2019-03-23T17:29:53.602Z,96064.17
2019-03-23T17:32:21.972Z,96065.88
2019-03-23T17:34:50.319Z,96072.52
2019-03-23T17:37:18.636Z,96074.50
2019-03-23T17:39:46.966Z,96080.00
2019-03-23T17:42:15.357Z,96079.84
2019-03-23T17:44:43.559Z,96081.52
2019-03-23T17:47:11.987Z,96092.30
2019-03-23T17:49:40.307Z,96091.09
2019-03-23T17:52:08.642Z,96094.45
2019-03-23T17:54:36.878Z,96099.57
2019-03-23T17:57:05.320Z,96091.32
2019-03-23T17:59:33.631Z,96100.67
2019-03-23T18:02:01.974Z,96099.61
2019-03-23T18:04:30.350Z,96106.75
2019-03-23T18:06:58.683Z,96110.49
2019-03-23T18:09:26.971Z,96111.52
2019-03-23T18:11:55.271Z,96117.48
2019-03-23T18:14:24.177Z,96126.09
2019-03-23T18:16:52.313Z,96118.51
2019-03-23T18:19:20.605Z,96127.51
2019-03-23T18:21:48.897Z,96132.01
2019-03-23T18:24:17.886Z,96127.48
2019-03-23T18:26:46.187Z,96134.47
2019-03-23T18:29:14.652Z,96127.77
2019-03-23T18:31:42.894Z,96135.11
2019-03-23T18:34:11.131Z,96135.50
2019-03-23T18:36:39.815Z,96138.38
2019-03-23T18:39:08.224Z,96138.84
2019-03-23T18:41:36.554Z,96147.69
2019-03-23T18:44:15.600Z,96148.95
2019-03-23T18:46:35.390Z,96147.92
2019-03-23T18:49:03.800Z,96155.76
2019-03-23T18:51:32.183Z,96155.64
2019-03-23T18:54:00.531Z,96163.76
2019-03-23T18:56:29.141Z,96161.58
2019-03-23T18:58:57.676Z,96170.36
2019-03-23T19:01:26.490Z,96172.34
2019-03-23T19:03:55.388Z,96177.45
2019-03-23T19:06:23.652Z,96173.65
2019-03-23T19:08:52.095Z,96177.17
2019-03-23T19:11:21.909Z,96183.45
2019-03-23T19:13:50.283Z,96182.64
2019-03-23T19:16:19.056Z,96185.05
2019-03-23T19:18:49.217Z,96184.58
2019-03-23T19:21:17.496Z,96184.23
2019-03-23T19:23:45.914Z,96184.52
2019-03-23T19:26:14.323Z,96192.38
2019-03-23T19:28:42.804Z,96195.00
2019-03-23T19:31:10.989Z,96198.03
2019-03-23T19:33:39.362Z,96196.61
2019-03-23T19:36:07.901Z,96202.39
2019-03-23T19:38:36.226Z,96201.11
2019-03-23T19:41:05.689Z,96204.30
2019-03-23T19:43:34.166Z,96209.44
2019-03-23T19:46:03.071Z,96213.64
2019-03-23T19:48:31.587Z,96210.45
2019-03-23T19:50:59.867Z,96212.19
2019-03-23T19:53:28.035Z,96225.32
2019-03-23T19:55:56.585Z,96226.53
2019-03-23T19:58:24.971Z,96228.89
2019-03-23T20:00:53.409Z,96231.83
2019-03-23T20:03:21.643Z,96235.45
2019-03-23T20:05:50.043Z,96241.00
2019-03-23T20:08:18.667Z,96242.30
2019-03-23T20:10:46.981Z,96245.03
2019-03-23T20:13:15.319Z,96249.42
2019-03-23T20:15:44.026Z,96248.11
2019-03-23T20:18:12.427Z,96251.48
2019-03-23T20:20:40.809Z,96250.81
2019-03-23T20:23:09.285Z,96249.86
2019-03-23T20:25:39.697Z,96251.92
2019-03-23T20:28:07.963Z,96260.07
2019-03-23T20:30:37.079Z,96256.92
2019-03-23T20:33:05.711Z,96258.30
2019-03-23T20:35:34.011Z,96262.72
2019-03-23T20:38:08.286Z,96259.33
2019-03-23T20:40:38.351Z,96262.81
2019-03-23T20:43:06.991Z,96258.32
2019-03-23T20:45:36.561Z,96263.97
2019-03-23T20:48:04.886Z,96255.36
2019-03-23T20:50:33.309Z,96258.26
2019-03-23T20:53:02.146Z,96259.41
2019-03-23T20:55:31.528Z,96259.22
2019-03-23T20:58:00.279Z,96260.75
2019-03-23T21:00:29.016Z,96261.71
2019-03-23T21:02:57.885Z,96259.25
2019-03-23T21:05:33.917Z,96261.27
2019-03-23T21:07:56.509Z,96263.75
2019-03-23T21:10:24.924Z,96263.89
2019-03-23T21:12:55.869Z,96264.36
2019-03-23T21:15:24.153Z,96263.05
2019-03-23T21:17:52.682Z,96274.62
2019-03-23T21:20:21.228Z,96266.57
2019-03-23T21:22:49.542Z,96271.58
2019-03-23T21:25:17.897Z,96271.32
2019-03-23T21:27:46.346Z,96272.16
2019-03-23T21:30:15.419Z,96272.11
2019-03-23T21:32:43.846Z,96260.20
2019-03-23T21:35:12.263Z,96269.08
2019-03-23T21:37:40.699Z,96258.05
2019-03-23T21:40:09.210Z,96263.52
2019-03-23T21:42:37.545Z,96266.46
2019-03-23T21:45:06.322Z,96265.25
2019-03-23T21:47:34.564Z,96275.97
2019-03-23T21:50:02.703Z,96268.13
2019-03-23T21:52:31.042Z,96270.08
2019-03-23T21:54:59.168Z,96273.73
2019-03-23T21:57:27.271Z,96268.47
2019-03-23T21:59:56.262Z,96271.80
2019-03-23T22:02:24.379Z,96266.78
2019-03-23T22:04:52.357Z,96269.45
2019-03-23T22:07:20.392Z,96270.27
2019-03-23T22:09:48.403Z,96269.05
2019-03-23T22:12:16.343Z,96270.56
2019-03-23T22:14:44.324Z,96272.84
2019-03-23T22:17:12.415Z,96266.87
2019-03-23T22:19:40.366Z,96269.80
2019-03-23T22:22:08.343Z,96273.95
2019-03-23T22:24:36.362Z,96270.00
2019-03-23T22:27:04.264Z,96272.09
2019-03-23T22:29:32.146Z,96267.33
2019-03-23T22:32:00.129Z,96267.94
2019-03-23T22:34:27.993Z,96268.80
2019-03-23T22:36:55.881Z,96267.09
2019-03-23T22:39:23.825Z,96269.83
2019-03-23T22:41:51.726Z,96261.78
2019-03-23T22:44:19.601Z,96266.92
2019-03-23T22:46:47.534Z,96262.95
2019-03-23T22:49:15.486Z,96263.01
2019-03-23T22:51:43.400Z,96265.69
2019-03-23T22:54:11.350Z,96265.47
2019-03-23T22:56:39.301Z,96273.88
2019-03-23T22:59:10.693Z,96262.67
2019-03-23T23:01:39.057Z,96263.86
2019-03-23T23:04:07.231Z,96259.36
2019-03-23T23:06:35.458Z,96263.67
2019-03-23T23:09:05.528Z,96259.55
2019-03-23T23:11:33.421Z,96262.41
2019-03-23T23:14:01.687Z,96263.89
2019-03-23T23:16:29.599Z,96261.44
2019-03-23T23:18:57.432Z,96260.52
2019-03-23T23:21:25.386Z,96250.53
2019-03-23T23:23:53.409Z,96249.98
2019-03-23T23:26:21.259Z,96255.70
2019-03-23T23:28:49.127Z,96243.47
2019-03-23T23:31:17.016Z,96244.95
2019-03-23T23:33:44.841Z,96247.48
2019-03-23T23:36:12.701Z,96244.20
2019-03-23T23:38:40.610Z,96241.34
2019-03-23T23:41:08.490Z,96239.83
2019-03-23T23:43:36.341Z,96234.75
2019-03-23T23:46:04.279Z,96233.91
2019-03-23T23:48:32.260Z,96230.16
2019-03-23T23:51:00.139Z,96229.52
2019-03-23T23:53:28.041Z,96229.37
2019-03-23T23:55:55.959Z,96234.45
2019-03-23T23:58:23.864Z,96233.61
